DC06 weather

MPD 2nd Metropolitan Police Department Heliport
Washington, District of Columbia, United States

Public forecast

Using degrees Fahrenheit for public forecast. Weather courtesy of forecast.io.

Closest aviation weather report (METAR) to MPD 2nd Metropolitan Police Department Heliport

Closest report is Ronald Reagan Washington National Airport, 5.2 nm (9.7 km) SSE. Retrieved 2019/10/15 18:52 UTC (1 hour ago):

KDCA 151852Z 12003KT 10SM FEW045 FEW250 22/04 A3010 RMK AO2 SLP192 T02170044

Closest aviation forecast (TAF) to MPD 2nd Metropolitan Police Department Heliport

Closest forecast is Ronald Reagan Washington National Airport, 5.2 nm (9.7 km) SSE. Retrieved 2019/10/15 18:24 UTC (1 hour ago):

TAF KDCA 151720Z 1518/1624 13004KT P6SM FEW250 FM161000 16005KT P6SM BKN200 FM161500 17007KT P6SM -RA OVC020 FM161800 18007KT 3SM RA OVC010 FM162100 29008KT 4SM -RA OVC020